Time;durP1;ratioP1;P1;durP2;ratioP2;P2;SDS_P1;SDS_P2;PMS_P1;PMS_P2;Temp;Humidity;BMP_temperature;BMP_pressure;BME280_temperature;BME280_humidity;BME280_pressure;Samples;Min_cycle;Max_cycle;Signal;HPM_P1;HPM_P2
2023/09/01 00:01:43;;;;;;;;;;;;;;;21.61;52.87;95699.28;10485910;28;2259;-67
2023/09/01 00:06:44;;;;;;;;;;;;;;;21.60;52.75;95700.34;10479800;28;1931;-68
2023/09/01 00:11:44;;;;;;;;;;;;;;;21.60;52.71;95710.88;10485308;28;1945;-66
2023/09/01 00:16:45;;;;;;;;;;;;;;;21.59;52.88;95721.72;10474802;28;2030;-66
2023/09/01 00:21:45;;;;;;;;;;;;;;;21.60;52.67;95725.91;10480246;28;2047;-66
2023/09/01 00:26:45;;;;;;;;;;;;;;;21.58;52.67;95734.13;10483189;28;2016;-71
2023/09/01 00:31:45;;;;;;;;;;;;;;;21.58;52.82;95725.41;10491711;28;1848;-70
2023/09/01 00:36:49;;;;;;;;;;;;;;;21.58;52.62;95733.34;10490816;28;1954;-67
2023/09/01 00:41:49;;;;;;;;;;;;;;;21.57;52.51;95729.13;10493951;28;4307;-70
2023/09/01 00:46:49;;;;;;;;;;;;;;;21.57;52.58;95724.66;10486067;28;1906;-69
2023/09/01 00:51:50;;;;;;;;;;;;;;;21.56;52.54;95730.19;10488490;28;2076;-67
2023/09/01 00:56:50;;;;;;;;;;;;;;;21.54;52.38;95716.50;10478800;28;2921;-68
2023/09/01 01:01:50;;;;;;;;;;;;;;;21.55;52.76;95731.25;10474689;28;2028;-68
2023/09/01 01:06:53;;;;;;;;;;;;;;;21.56;52.86;95717.00;10475426;28;1980;-68
2023/09/01 01:11:54;;;;;;;;;;;;;;;21.54;52.59;95709.38;10489711;28;1993;-68
2023/09/01 01:16:54;;;;;;;;;;;;;;;21.55;52.44;95704.88;10486623;28;1949;-67
2023/09/01 01:21:54;;;;;;;;;;;;;;;21.54;52.59;95674.28;10482935;28;1920;-67
2023/09/01 01:26:54;;;;;;;;;;;;;;;21.53;52.69;95656.91;10472906;28;1934;-68
2023/09/01 01:31:57;;;;;;;;;;;;;;;21.52;52.43;95640.28;10490479;28;1968;-67
2023/09/01 01:37:00;;;;;;;;;;;;;;;21.53;52.42;95635.81;10488029;28;1953;-68
2023/09/01 01:42:10;;;;;;;;;;;;;;;21.52;52.46;95642.13;10481324;28;4481;-69
2023/09/01 01:47:13;;;;;;;;;;;;;;;21.53;52.33;95641.09;10464480;28;1945;-68
2023/09/01 01:52:13;;;;;;;;;;;;;;;21.52;52.46;95642.13;10469525;28;2220;-68
2023/09/01 01:57:14;;;;;;;;;;;;;;;21.52;52.46;95650.06;10486166;28;2600;-69
2023/09/01 02:02:14;;;;;;;;;;;;;;;21.52;52.41;95647.41;10462215;28;1969;-68
2023/09/01 02:07:15;;;;;;;;;;;;;;;21.51;52.61;95648.50;10476349;28;1953;-68
2023/09/01 02:12:15;;;;;;;;;;;;;;;21.51;52.56;95632.69;10472091;28;1983;-68
2023/09/01 02:17:15;;;;;;;;;;;;;;;21.50;52.29;95629.25;10488246;28;1979;-68
2023/09/01 02:22:15;;;;;;;;;;;;;;;21.50;52.56;95623.19;10470648;28;2092;-69
2023/09/01 02:27:16;;;;;;;;;;;;;;;21.49;52.20;95625.06;10476815;28;2005;-69
2023/09/01 02:32:16;;;;;;;;;;;;;;;21.50;52.52;95612.63;10484278;28;2124;-68
2023/09/01 02:37:16;;;;;;;;;;;;;;;21.49;52.11;95616.34;10478905;28;1957;-68
2023/09/01 02:42:16;;;;;;;;;;;;;;;21.48;52.48;95602.38;10490091;28;4723;-68
2023/09/01 02:47:17;;;;;;;;;;;;;;;21.49;52.34;95608.44;10476449;28;1975;-68
2023/09/01 02:52:17;;;;;;;;;;;;;;;21.49;52.18;95608.44;10480481;28;2296;-68
2023/09/01 02:57:17;;;;;;;;;;;;;;;21.47;52.25;95600.81;10492811;28;1945;-68
2023/09/01 03:02:18;;;;;;;;;;;;;;;21.46;52.19;95598.44;10491382;28;1948;-68
2023/09/01 03:07:18;;;;;;;;;;;;;;;21.47;52.22;95598.19;10486907;28;1989;-69
2023/09/01 03:12:18;;;;;;;;;;;;;;;21.47;52.08;95595.53;10482758;28;2040;-69
2023/09/01 03:17:19;;;;;;;;;;;;;;;21.47;52.29;95589.47;10486315;28;1968;-69
2023/09/01 03:22:19;;;;;;;;;;;;;;;21.45;52.10;95584.47;10486778;28;1966;-68
2023/09/01 03:27:19;;;;;;;;;;;;;;;21.46;52.31;95591.31;10491719;28;1971;-69
2023/09/01 03:32:20;;;;;;;;;;;;;;;21.46;52.02;95579.97;10490687;28;1983;-69
2023/09/01 03:37:20;;;;;;;;;;;;;;;21.46;52.04;95579.97;10488882;28;1941;-69
2023/09/01 03:42:20;;;;;;;;;;;;;;;21.44;52.29;95575.00;10469650;28;4374;-68
2023/09/01 03:47:20;;;;;;;;;;;;;;;21.45;51.87;95581.06;10484317;28;2042;-69
2023/09/01 03:52:21;;;;;;;;;;;;;;;21.45;51.95;95588.97;10482424;28;1961;-69
2023/09/01 03:57:21;;;;;;;;;;;;;;;21.44;52.04;95590.03;10484194;28;1990;-68
2023/09/01 04:02:21;;;;;;;;;;;;;;;21.43;51.96;95588.47;10488601;28;1951;-68
2023/09/01 04:07:21;;;;;;;;;;;;;;;21.43;52.16;95599.78;10468401;28;1975;-69
2023/09/01 04:12:22;;;;;;;;;;;;;;;21.42;51.91;95592.94;10485849;28;1941;-68
2023/09/01 04:17:22;;;;;;;;;;;;;;;21.43;51.88;95599.03;10492803;28;1961;-69
2023/09/01 04:22:23;;;;;;;;;;;;;;;21.42;52.06;95611.41;10481535;28;1973;-69
2023/09/01 04:27:23;;;;;;;;;;;;;;;21.42;51.92;95600.06;10467743;28;2049;-66
2023/09/01 04:32:23;;;;;;;;;;;;;;;21.42;52.09;95613.25;10488256;28;1933;-68
2023/09/01 04:37:24;;;;;;;;;;;;;;;21.42;51.73;95618.53;10475610;28;1959;-69
2023/09/01 04:42:24;;;;;;;;;;;;;;;21.42;51.90;95608.78;10466978;28;4481;-68
2023/09/01 04:47:24;;;;;;;;;;;;;;;21.40;51.71;95610.13;10484343;28;2278;-68
2023/09/01 04:52:24;;;;;;;;;;;;;;;21.40;52.03;95605.63;10493310;28;1968;-69
2023/09/01 04:57:25;;;;;;;;;;;;;;;21.41;51.70;95611.69;10485164;28;1918;-68
2023/09/01 05:02:26;;;;;;;;;;;;;;;21.41;51.83;95606.44;10487634;28;1942;-69
2023/09/01 05:07:26;;;;;;;;;;;;;;;21.40;51.96;95612.75;10470818;28;1978;-68
2023/09/01 05:12:26;;;;;;;;;;;;;;;21.39;51.65;95617.22;10501206;28;1933;-68
2023/09/01 05:17:27;;;;;;;;;;;;;;;21.40;51.94;95620.66;10502339;28;1936;-69
2023/09/01 05:22:27;;;;;;;;;;;;;;;21.39;51.83;95619.88;10485050;28;2040;-68
2023/09/01 05:27:27;;;;;;;;;;;;;;;21.38;51.71;95626.22;10471818;28;2021;-68
2023/09/01 05:32:28;;;;;;;;;;;;;;;21.39;51.87;95627.03;10457230;28;1953;-69
2023/09/01 05:37:29;;;;;;;;;;;;;;;21.38;51.68;95633.34;10489604;28;1928;-68
2023/09/01 05:42:29;;;;;;;;;;;;;;;21.38;51.87;95638.63;10485236;28;4504;-68
2023/09/01 05:47:30;;;;;;;;;;;;;;;21.39;51.54;95632.28;10489981;28;1953;-68
2023/09/01 05:52:30;;;;;;;;;;;;;;;21.38;51.97;95641.25;10492854;28;1999;-67
2023/09/01 05:57:30;;;;;;;;;;;;;;;21.38;51.70;95644.69;10487107;28;1903;-68
2023/09/01 06:02:30;;;;;;;;;;;;;;;21.38;51.99;95649.16;10485069;28;1927;-73
2023/09/01 06:07:31;;;;;;;;;;;;;;;21.39;51.97;95661.28;10470913;28;1962;-67
2023/09/01 06:12:31;;;;;;;;;;;;;;;21.38;52.06;95660.50;10469283;28;1902;-70
2023/09/01 06:17:31;;;;;;;;;;;;;;;21.39;52.03;95656.78;10463314;28;1933;-70
2023/09/01 06:22:32;;;;;;;;;;;;;;;21.37;51.74;95658.91;10484867;28;1946;-67
2023/09/01 06:27:36;;;;;;;;;;;;;;;21.42;51.77;95664.16;10483688;28;1952;-62
2023/09/01 06:32:37;;;;;;;;;;;;;;;21.43;52.14;95675.50;10487846;28;1961;-62
2023/09/01 06:37:37;;;;;;;;;;;;;;;21.42;52.42;95679.19;10477438;28;2326;-63
2023/09/01 06:42:37;;;;;;;;;;;;;;;21.42;52.38;95687.09;10491970;28;4544;-61
2023/09/01 06:47:38;;;;;;;;;;;;;;;21.42;52.36;95687.09;10498897;28;2208;-62
2023/09/01 06:52:38;;;;;;;;;;;;;;;21.43;52.34;95688.69;10486461;28;2230;-61
2023/09/01 06:57:38;;;;;;;;;;;;;;;21.42;52.85;95687.09;10492479;28;2097;-62
2023/09/01 07:02:39;;;;;;;;;;;;;;;21.43;52.54;95688.69;10501181;28;1471;-61
2023/09/01 07:07:39;;;;;;;;;;;;;;;21.42;52.31;95693.16;10501492;28;1960;-62
2023/09/01 07:12:39;;;;;;;;;;;;;;;21.43;52.40;95699.22;10471129;28;1551;-62
2023/09/01 07:17:40;;;;;;;;;;;;;;;21.42;52.64;95703.72;10496921;28;1430;-61
2023/09/01 07:22:40;;;;;;;;;;;;;;;21.43;52.64;95701.84;10506302;28;1861;-61
2023/09/01 07:27:40;;;;;;;;;;;;;;;21.44;52.66;95706.84;10495075;28;1898;-61
2023/09/01 07:32:40;;;;;;;;;;;;;;;21.45;52.48;95712.91;10504623;28;2248;-61
2023/09/01 07:37:41;;;;;;;;;;;;;;;21.47;52.38;95710.78;10504588;28;1487;-61
2023/09/01 07:42:41;;;;;;;;;;;;;;;21.47;52.72;95716.06;10468892;28;4520;-62
2023/09/01 07:47:42;;;;;;;;;;;;;;;21.48;52.57;95726.31;10477725;28;1921;-61
2023/09/01 07:52:43;;;;;;;;;;;;;;;21.49;53.10;95729.75;10485699;28;1513;-62
2023/09/01 07:57:43;;;;;;;;;;;;;;;21.51;52.95;95722.34;10456518;28;1608;-61
2023/09/01 08:02:43;;;;;;;;;;;;;;;21.52;52.98;95716.78;10478086;28;1583;-61
2023/09/01 08:07:45;;;;;;;;;;;;;;;21.52;52.84;95718.63;10477707;28;1906;-61
2023/09/01 08:12:46;;;;;;;;;;;;;;;21.52;53.06;95727.34;10478560;28;1564;-61
2023/09/01 08:17:46;;;;;;;;;;;;;;;21.52;53.33;95735.25;10481818;28;1458;-59
2023/09/01 08:22:46;;;;;;;;;;;;;;;21.51;53.30;95732.91;10472594;28;1551;-60
2023/09/01 08:27:46;;;;;;;;;;;;;;;21.50;53.26;95737.38;10461975;28;2343;-60
2023/09/01 08:32:47;;;;;;;;;;;;;;;21.51;53.17;95735.53;10464727;28;1353;-60
2023/09/01 08:37:47;;;;;;;;;;;;;;;21.53;52.99;95736.03;10480794;28;1382;-60
2023/09/01 08:42:48;;;;;;;;;;;;;;;21.51;53.26;95732.91;10488825;28;4492;-60
2023/09/01 08:47:48;;;;;;;;;;;;;;;21.51;53.56;95727.63;10490477;28;1971;-60
2023/09/01 08:52:49;;;;;;;;;;;;;;;21.51;53.19;95728.41;10479766;28;1453;-60
2023/09/01 08:57:50;;;;;;;;;;;;;;;21.51;53.13;95724.97;10481781;28;1065;-60
2023/09/01 09:02:50;;;;;;;;;;;;;;;21.52;52.86;95729.19;10486261;28;1528;-60
2023/09/01 09:07:58;;;;;;;;;;;;;;;21.52;53.03;95737.88;10489073;28;1991;-60
2023/09/01 09:12:58;;;;;;;;;;;;;;;21.53;53.12;95730.75;10471531;28;1464;-60
2023/09/01 09:17:58;;;;;;;;;;;;;;;21.53;53.04;95725.50;10480351;28;1568;-60
2023/09/01 09:22:59;;;;;;;;;;;;;;;21.53;52.86;95726.28;10485991;28;2432;-60
2023/09/01 09:28:00;;;;;;;;;;;;;;;21.54;53.14;95716.50;10487767;28;1976;-61
2023/09/01 09:33:04;;;;;;;;;;;;;;;21.54;53.05;95712.00;10465592;28;1646;-63
2023/09/01 09:38:04;;;;;;;;;;;;;;;21.54;53.18;95716.50;10487302;28;1629;-60
2023/09/01 09:43:06;;;;;;;;;;;;;;;21.55;53.21;95718.06;10478669;28;4457;-60
2023/09/01 09:48:07;;;;;;;;;;;;;;;21.54;53.09;95722.56;10483862;28;1968;-60
2023/09/01 09:53:07;;;;;;;;;;;;;;;21.55;52.82;95724.16;10487364;28;1461;-60
2023/09/01 09:58:08;;;;;;;;;;;;;;;21.56;52.98;95724.91;10486809;28;1212;-60
2023/09/01 10:03:08;;;;;;;;;;;;;;;21.57;53.01;95715.94;10496717;28;1552;-60
2023/09/01 10:08:08;;;;;;;;;;;;;;;21.56;52.95;95722.28;10490642;28;1983;-61
2023/09/01 10:13:09;;;;;;;;;;;;;;;21.57;52.80;95723.84;10486509;28;940;-61
2023/09/01 10:18:09;;;;;;;;;;;;;;;21.57;53.11;95716.75;10472109;28;1685;-60
2023/09/01 10:23:10;;;;;;;;;;;;;;;21.58;53.16;95715.66;10495372;28;2300;-60
2023/09/01 10:28:11;;;;;;;;;;;;;;;21.58;52.92;95706.94;10494049;28;1922;-60
2023/09/01 10:33:15;;;;;;;;;;;;;;;21.59;53.06;95716.44;10489395;28;1614;-60
2023/09/01 10:38:19;;;;;;;;;;;;;;;21.62;52.80;95718.50;10489129;28;1512;-60
2023/09/01 10:43:35;;;;;;;;;;;;;;;21.61;53.20;95698.50;10488965;28;4514;-60
2023/09/01 10:48:48;;;;;;;;;;;;;;;21.63;53.15;95717.47;10489884;28;1978;-60
2023/09/01 10:53:59;;;;;;;;;;;;;;;21.64;53.11;95698.72;10491761;28;1351;-60
2023/09/01 10:59:00;;;;;;;;;;;;;;;21.64;52.84;95703.19;10484645;28;1402;-60
2023/09/01 11:04:15;;;;;;;;;;;;;;;21.64;52.98;95711.91;10478964;28;1029;-60
2023/09/01 11:09:16;;;;;;;;;;;;;;;21.65;52.84;95704.78;10486865;28;1910;-60
2023/09/01 11:14:20;;;;;;;;;;;;;;;21.65;53.10;95702.13;10491837;28;1358;-60
2023/09/01 11:19:20;;;;;;;;;;;;;;;21.66;53.19;95704.50;10487980;28;2434;-60
2023/09/01 11:24:20;;;;;;;;;;;;;;;21.67;52.93;95700.00;10483185;28;1359;-60
2023/09/01 11:29:20;;;;;;;;;;;;;;;21.67;52.87;95694.72;10482395;28;1910;-60
2023/09/01 11:34:21;;;;;;;;;;;;;;;21.68;52.99;95693.66;10490752;28;979;-60
2023/09/01 11:39:22;;;;;;;;;;;;;;;21.68;52.81;95691.00;10486516;28;1351;-61
2023/09/01 11:44:22;;;;;;;;;;;;;;;21.67;53.11;95686.81;10492058;28;4343;-61
2023/09/01 11:49:22;;;;;;;;;;;;;;;21.68;53.01;95691.00;10485336;28;1991;-61
2023/09/01 11:54:22;;;;;;;;;;;;;;;21.69;53.13;95679.41;10465729;28;1424;-60
2023/09/01 11:59:23;;;;;;;;;;;;;;;21.69;52.92;95687.31;10483471;28;1426;-60
2023/09/01 12:04:23;;;;;;;;;;;;;;;21.68;53.00;95681.25;10478928;28;1089;-60
2023/09/01 12:09:24;;;;;;;;;;;;;;;21.70;52.78;95683.63;10482343;28;1909;-60
2023/09/01 12:14:25;;;;;;;;;;;;;;;21.70;53.05;95686.25;10488166;28;2598;-60
2023/09/01 12:19:25;;;;;;;;;;;;;;;21.69;53.15;95682.84;10484150;28;1121;-60
2023/09/01 12:24:26;;;;;;;;;;;;;;;21.70;53.08;95683.63;10478136;28;1454;-60
2023/09/01 12:29:26;;;;;;;;;;;;;;;21.71;52.93;95679.91;10486356;28;1973;-61
2023/09/01 12:34:26;;;;;;;;;;;;;;;21.73;53.06;95680.41;10482709;28;1209;-60
2023/09/01 12:39:26;;;;;;;;;;;;;;;21.73;52.93;95677.78;10489410;28;1334;-60
2023/09/01 12:44:28;;;;;;;;;;;;;;;21.73;53.02;95672.50;10488120;28;4509;-60
2023/09/01 12:49:28;;;;;;;;;;;;;;;21.74;53.23;95669.56;10474431;28;1914;-61
2023/09/01 12:54:28;;;;;;;;;;;;;;;21.74;53.11;95656.38;10478152;28;1030;-61
2023/09/01 12:59:32;;;;;;;;;;;;;;;21.75;53.05;95667.72;10483722;28;1456;-61
2023/09/01 13:04:33;;;;;;;;;;;;;;;21.76;53.17;95670.06;10486950;28;1168;-61
2023/09/01 13:09:33;;;;;;;;;;;;;;;21.75;53.06;95662.44;10487625;28;2509;-61
2023/09/01 13:14:33;;;;;;;;;;;;;;;21.75;53.24;95676.44;10487387;28;1490;-61
2023/09/01 13:19:33;;;;;;;;;;;;;;;21.75;53.16;95655.31;10481875;28;1465;-61
2023/09/01 13:24:35;;;;;;;;;;;;;;;21.74;53.31;95653.75;10479929;28;2054;-61
2023/09/01 13:29:35;;;;;;;;;;;;;;;21.75;53.47;95659.81;10483781;28;1891;-61
2023/09/01 13:34:35;;;;;;;;;;;;;;;21.75;53.40;95654.53;10481654;28;1150;-61
2023/09/01 13:39:36;;;;;;;;;;;;;;;21.76;53.34;95656.13;10485481;28;1310;-61
2023/09/01 13:44:36;;;;;;;;;;;;;;;21.76;53.13;95661.38;10476625;28;4559;-61
2023/09/01 13:49:36;;;;;;;;;;;;;;;21.75;53.19;95657.97;10481269;28;1975;-61
2023/09/01 13:54:36;;;;;;;;;;;;;;;21.75;53.30;95654.53;10479717;28;1373;-61
2023/09/01 13:59:37;;;;;;;;;;;;;;;21.76;53.05;95662.16;10474859;28;1378;-61
2023/09/01 14:04:37;;;;;;;;;;;;;;;21.76;53.38;95656.13;10484835;28;2255;-61
2023/09/01 14:09:38;;;;;;;;;;;;;;;21.75;53.41;95650.03;10479443;28;1963;-60
2023/09/01 14:14:38;;;;;;;;;;;;;;;21.75;53.34;95642.13;10474979;28;1510;-61
2023/09/01 14:19:38;;;;;;;;;;;;;;;21.75;53.45;95644.78;10477588;28;1210;-61
2023/09/01 14:24:39;;;;;;;;;;;;;;;21.76;53.31;95650.84;10482037;28;1400;-61
2023/09/01 14:29:39;;;;;;;;;;;;;;;21.75;53.12;95643.97;10489242;28;1961;-61
2023/09/01 14:34:39;;;;;;;;;;;;;;;21.75;53.16;95649.25;10474389;28;1034;-61
2023/09/01 14:39:40;;;;;;;;;;;;;;;21.75;53.48;95641.34;10485187;28;1435;-61
2023/09/01 14:44:40;;;;;;;;;;;;;;;21.76;53.26;95646.31;10482514;28;4485;-61
2023/09/01 14:49:40;;;;;;;;;;;;;;;21.75;53.10;95638.69;10492457;28;1914;-61
2023/09/01 14:54:40;;;;;;;;;;;;;;;21.77;53.38;95649.75;10500539;28;1308;-61
2023/09/01 14:59:41;;;;;;;;;;;;;;;21.77;53.25;95644.47;10469476;28;1374;-61
2023/09/01 15:04:41;;;;;;;;;;;;;;;21.77;53.37;95636.56;10491683;28;2419;-61
2023/09/01 15:09:41;;;;;;;;;;;;;;;21.76;53.00;95637.66;10481535;28;1957;-61
2023/09/01 15:14:41;;;;;;;;;;;;;;;21.77;53.03;95639.19;10489849;28;1383;-61
2023/09/01 15:19:43;;;;;;;;;;;;;;;21.78;53.18;95646.81;10490743;28;1284;-61
2023/09/01 15:24:43;;;;;;;;;;;;;;;21.77;53.06;95637.34;10486408;28;1382;-61
2023/09/01 15:29:43;;;;;;;;;;;;;;;21.77;53.25;95647.91;10487647;28;1894;-61
2023/09/01 15:34:44;;;;;;;;;;;;;;;21.78;53.23;95646.06;10466962;28;1806;-61
2023/09/01 15:39:44;;;;;;;;;;;;;;;21.78;53.39;95643.44;10484350;28;1380;-61
2023/09/01 15:44:46;;;;;;;;;;;;;;;21.77;53.35;95637.34;10490289;28;4651;-62
2023/09/01 15:49:49;;;;;;;;;;;;;;;21.77;53.34;95647.13;10491571;28;1902;-62
2023/09/01 15:54:49;;;;;;;;;;;;;;;21.78;52.96;95644.19;10482446;28;1417;-61
2023/09/01 15:59:52;;;;;;;;;;;;;;;21.80;53.27;95651.84;10482179;28;2287;-61
2023/09/01 16:04:52;;;;;;;;;;;;;;;21.78;53.10;95649.47;10481244;28;1514;-61
2023/09/01 16:09:53;;;;;;;;;;;;;;;21.78;53.32;95646.81;10490909;28;1964;-61
2023/09/01 16:14:53;;;;;;;;;;;;;;;21.78;53.29;95654.75;10490118;28;1569;-61
2023/09/01 16:19:53;;;;;;;;;;;;;;;21.78;53.28;95646.06;10481439;28;1529;-61
2023/09/01 16:24:54;;;;;;;;;;;;;;;21.77;53.26;95642.63;10486267;28;1503;-61
2023/09/01 16:29:54;;;;;;;;;;;;;;;21.79;53.15;95652.91;10486538;28;1910;-61
2023/09/01 16:34:54;;;;;;;;;;;;;;;21.78;53.30;95653.97;10488267;28;1137;-61
2023/09/01 16:39:55;;;;;;;;;;;;;;;21.78;53.08;95649.47;10488430;28;1326;-61
2023/09/01 16:44:55;;;;;;;;;;;;;;;21.77;53.11;95658.47;10467791;28;4490;-61
2023/09/01 16:49:55;;;;;;;;;;;;;;;21.77;52.93;95663.75;10477475;28;1910;-61
2023/09/01 16:54:55;;;;;;;;;;;;;;;21.77;53.38;95663.75;10479799;28;2294;-61
2023/09/01 16:59:56;;;;;;;;;;;;;;;21.77;53.18;95662.94;10482962;28;1536;-61
2023/09/01 17:04:56;;;;;;;;;;;;;;;21.77;52.92;95665.59;10486561;28;1438;-61
2023/09/01 17:10:06;;;;;;;;;;;;;;;21.77;53.01;95660.31;10481169;28;1914;-61
2023/09/01 17:15:07;;;;;;;;;;;;;;;21.77;53.44;95668.22;10486821;28;1560;-61
2023/09/01 17:20:07;;;;;;;;;;;;;;;21.76;53.33;95666.66;10473914;28;1487;-61
2023/09/01 17:25:08;;;;;;;;;;;;;;;21.76;53.01;95667.44;10482199;28;1494;-61
2023/09/01 17:30:09;;;;;;;;;;;;;;;21.74;53.24;95663.53;10487350;28;1971;-61
2023/09/01 17:35:09;;;;;;;;;;;;;;;21.75;53.04;95676.44;10489415;28;1565;-61
2023/09/01 17:40:10;;;;;;;;;;;;;;;21.75;53.20;95678.28;10475903;28;1537;-61
2023/09/01 17:45:10;;;;;;;;;;;;;;;21.74;53.16;95685.41;10475889;28;4734;-61
2023/09/01 17:50:11;;;;;;;;;;;;;;;21.74;53.39;95687.28;10483044;28;2297;-61
2023/09/01 17:55:11;;;;;;;;;;;;;;;21.74;53.05;95689.91;10482314;28;1452;-61
2023/09/01 18:00:11;;;;;;;;;;;;;;;21.74;53.36;95695.19;10492802;28;1359;-61
2023/09/01 18:05:12;;;;;;;;;;;;;;;21.73;53.25;95697.03;10495643;28;1258;-61
2023/09/01 18:10:12;;;;;;;;;;;;;;;21.74;53.38;95703.09;10471657;28;1965;-61
2023/09/01 18:15:15;;;;;;;;;;;;;;;21.72;53.32;95700.72;10477418;28;1501;-61
2023/09/01 18:20:15;;;;;;;;;;;;;;;21.71;53.41;95701.81;10484126;28;970;-61
2023/09/01 18:25:15;;;;;;;;;;;;;;;21.72;53.32;95716.56;10493984;28;1334;-61
2023/09/01 18:30:16;;;;;;;;;;;;;;;21.72;52.96;95723.72;10494448;28;1965;-61
2023/09/01 18:35:16;;;;;;;;;;;;;;;21.71;53.37;95722.91;10497969;28;1027;-61
2023/09/01 18:40:19;;;;;;;;;;;;;;;21.72;53.30;95734.25;10488795;28;1378;-61
2023/09/01 18:45:24;;;;;;;;;;;;;;;21.71;53.01;95741.38;10487183;28;4860;-61
2023/09/01 18:50:24;;;;;;;;;;;;;;;21.74;53.28;95750.59;10494220;28;1977;-61
2023/09/01 18:55:24;;;;;;;;;;;;;;;21.72;53.28;95747.44;10496033;28;1545;-62
2023/09/01 19:00:26;;;;;;;;;;;;;;;21.72;52.97;95758.00;10489724;28;1560;-61
2023/09/01 19:05:28;;;;;;;;;;;;;;;21.72;53.05;95763.28;10475246;28;1309;-61
2023/09/01 19:10:28;;;;;;;;;;;;;;;21.72;53.36;95760.63;10486231;28;1981;-61
2023/09/01 19:15:28;;;;;;;;;;;;;;;21.70;53.33;95758.25;10491391;28;1403;-62
2023/09/01 19:20:30;;;;;;;;;;;;;;;21.70;53.29;95766.19;10489809;28;1572;-61
2023/09/01 19:25:30;;;;;;;;;;;;;;;21.71;53.27;95767.75;10484339;28;1446;-61
2023/09/01 19:30:30;;;;;;;;;;;;;;;21.73;52.96;95767.47;10475967;28;1914;-61
2023/09/01 19:35:33;;;;;;;;;;;;;;;21.72;52.90;95771.97;10485956;28;967;-61
2023/09/01 19:40:33;;;;;;;;;;;;;;;21.74;53.00;95775.09;10486743;28;1429;-61
2023/09/01 19:45:34;;;;;;;;;;;;;;;21.75;53.16;95778.53;10489592;28;4742;-61
2023/09/01 19:50:34;;;;;;;;;;;;;;;21.74;53.18;95774.34;10482469;28;1910;-62
2023/09/01 19:55:35;;;;;;;;;;;;;;;21.75;53.04;95789.09;10479760;28;1366;-61
2023/09/01 20:00:35;;;;;;;;;;;;;;;21.74;52.74;95795.44;10489690;28;1347;-61
2023/09/01 20:05:35;;;;;;;;;;;;;;;21.75;52.98;95791.72;10482853;28;1350;-61
2023/09/01 20:10:36;;;;;;;;;;;;;;;21.73;53.12;95788.59;10503454;28;1898;-61
2023/09/01 20:15:42;;;;;;;;;;;;;;;21.75;53.08;95786.44;10490103;28;1378;-61
2023/09/01 20:20:42;;;;;;;;;;;;;;;21.74;52.92;95790.16;10487041;28;1063;-61
2023/09/01 20:25:43;;;;;;;;;;;;;;;21.76;52.75;95793.31;10483429;28;1380;-61
2023/09/01 20:30:43;;;;;;;;;;;;;;;21.75;53.01;95797.00;10482352;28;1882;-61
2023/09/01 20:35:43;;;;;;;;;;;;;;;21.74;53.11;95806.00;10469196;28;999;-61
2023/09/01 20:40:43;;;;;;;;;;;;;;;21.74;53.10;95808.63;10491305;28;4461;-61
2023/09/01 20:45:44;;;;;;;;;;;;;;;21.71;52.90;95806.53;10488128;28;1588;-61
2023/09/01 20:50:44;;;;;;;;;;;;;;;21.72;53.08;95810.78;10477570;28;1910;-61
2023/09/01 20:55:45;;;;;;;;;;;;;;;21.73;53.06;95810.47;10482392;28;1473;-61
2023/09/01 21:00:45;;;;;;;;;;;;;;;21.72;53.13;95808.91;10487380;28;1485;-61
2023/09/01 21:05:46;;;;;;;;;;;;;;;21.73;53.12;95815.75;10489525;28;1641;-61
2023/09/01 21:10:46;;;;;;;;;;;;;;;21.72;53.10;95814.16;10463428;28;1977;-61
2023/09/01 21:15:47;;;;;;;;;;;;;;;21.71;53.04;95817.88;10477850;28;1461;-62
2023/09/01 21:20:47;;;;;;;;;;;;;;;21.72;53.08;95823.97;10479947;28;1040;-61
2023/09/01 21:25:48;;;;;;;;;;;;;;;21.71;53.00;95823.16;10486970;28;1370;-61
2023/09/01 21:30:50;;;;;;;;;;;;;;;21.71;53.05;95827.66;10488615;28;1906;-61
2023/09/01 21:35:50;;;;;;;;;;;;;;;21.71;52.96;95828.44;10483592;28;2263;-61
2023/09/01 21:40:50;;;;;;;;;;;;;;;21.70;52.81;95828.72;10481536;28;4469;-61
2023/09/01 21:45:51;;;;;;;;;;;;;;;21.70;52.71;95832.13;10485281;28;1444;-61
2023/09/01 21:50:51;;;;;;;;;;;;;;;21.71;52.93;95830.28;10462218;28;1906;-61
2023/09/01 21:55:51;;;;;;;;;;;;;;;21.72;52.80;95837.16;10484718;28;1677;-61
2023/09/01 22:00:51;;;;;;;;;;;;;;;21.71;52.71;95843.47;10486581;28;1413;-61
2023/09/01 22:05:52;;;;;;;;;;;;;;;21.70;52.68;95847.97;10478800;28;1419;-61
2023/09/01 22:10:52;;;;;;;;;;;;;;;21.70;52.97;95847.97;10475900;28;1965;-61
2023/09/01 22:15:54;;;;;;;;;;;;;;;21.71;52.82;95851.41;10481180;28;1333;-62
2023/09/01 22:20:54;;;;;;;;;;;;;;;21.70;52.93;95850.59;10486298;28;1131;-61
2023/09/01 22:25:54;;;;;;;;;;;;;;;21.71;52.98;95846.91;10490475;28;1454;-61
2023/09/01 22:30:54;;;;;;;;;;;;;;;21.71;52.90;95846.13;10481364;28;2364;-61
2023/09/01 22:35:55;;;;;;;;;;;;;;;21.70;52.93;95857.75;10496202;28;1531;-61
2023/09/01 22:40:59;;;;;;;;;;;;;;;21.70;52.58;95850.59;10467966;28;4552;-61
2023/09/01 22:45:59;;;;;;;;;;;;;;;21.71;52.53;95859.31;10485518;28;1474;-61
2023/09/01 22:51:00;;;;;;;;;;;;;;;21.70;52.85;95863.03;10487988;28;1906;-61
2023/09/01 22:56:00;;;;;;;;;;;;;;;21.70;52.65;95861.16;10485385;28;1311;-61
2023/09/01 23:01:03;;;;;;;;;;;;;;;21.70;52.88;95865.66;10473191;28;1404;-61
2023/09/01 23:06:03;;;;;;;;;;;;;;;21.70;52.78;95869.06;10477857;28;982;-61
2023/09/01 23:11:03;;;;;;;;;;;;;;;21.69;52.69;95872.00;10486665;28;1906;-61
2023/09/01 23:16:04;;;;;;;;;;;;;;;21.70;52.72;95878.84;10490922;28;1350;-61
2023/09/01 23:21:04;;;;;;;;;;;;;;;21.69;52.62;95866.72;10492333;28;1167;-62
2023/09/01 23:26:04;;;;;;;;;;;;;;;21.69;52.63;95874.63;10485985;28;1391;-61
2023/09/01 23:31:05;;;;;;;;;;;;;;;21.70;52.63;95868.31;10491437;28;2554;-61
2023/09/01 23:36:05;;;;;;;;;;;;;;;21.69;52.71;95869.34;10500560;28;1622;-61
2023/09/01 23:41:05;;;;;;;;;;;;;;;21.69;52.50;95869.34;10495525;28;4488;-61
2023/09/01 23:46:05;;;;;;;;;;;;;;;21.69;52.55;95877.28;10492878;28;1417;-61
2023/09/01 23:51:06;;;;;;;;;;;;;;;21.69;52.74;95875.41;10482962;28;1910;-61
2023/09/01 23:56:06;;;;;;;;;;;;;;;21.69;52.50;95878.06;10504545;28;1394;-61
